Enid, OK (73705)

2:18 AM CDT on May 23, 2015 (GMT -0500)
old post road | | Change Station
CLOSE
Current Station
Personal Weather Station
Location: Enid, OK
Elevation: 1306 ft
Nearby Weather Stations
Active Advisory: Flash Flood Watch Active Notice: Record Report

Elev 1306 ft 36.42 °N, 97.91 °W | Updated 10 minutes ago

Overcast
Overcast
55.4 °F
Feels Like 55.4 °F
N
0.0
Wind Variable Wind from ESE
Gusts 3.0 mph

Today
High -- | Low -- °F
--% Chance of Precip.
Yesterday
High -- | Low -- °F
Precip. -- in
6:19 AM 8:37 PM
Waxing Crescent, 27% visible
Pressure 30.13 in
Visibility 5.0 miles
Clouds Overcast 200 ft
Dew Point 55 °F
Humidity 98%
Rainfall 0.00 in
Snow Depth Not available.
UV 0 out of 12
Pollen .80 out of 12
Air Quality Not available.
Flu Activity Sporadic
METAR KEND 230658Z AUTO 13007KT 5SM R35C/5000FT BR OVC002 13/13 A3013 RMK AO2 DZE01DZB13E25 SLP202 P0001 T01310128 $

More Conditions Fewer Conditions

Pressure 30.13 in
Visibility 5.0 miles
Clouds Overcast 200 ft
Dew Point 55 °F
Humidity 98%
Rainfall 0.00 in
Snow Depth Not available.
UV 0 out of 12
Pollen .80 out of 12
Air Quality Not available.
Flu Activity Sporadic
METAR KEND 230658Z AUTO 13007KT 5SM R35C/5000FT BR OVC002 13/13 A3013 RMK AO2 DZE01DZB13E25 SLP202 P0001 T01310128 $

More Conditions Fewer Conditions

10-Day Weather Forecast

Almanac

Astronomy

May. 23, 2015 Rise Set
Actual Time
Civil Twilight
Nautical Twilight
Astronomical Twilight
Moon
Length of Visible Light
Length of Day
Tomorrow will be .
, % of the Moon is Illuminated

Today's Extremes

State Highs State Lows

Community

WunderPhotos

Upload Photos

1,823,394 photos uploaded!

WunderBlogs® & News

Nearby

Air Quality

  Air Quality AQ Index Pollutant
Not available.

Snow Depth

Station Depth Elevation

Earthquake Activity

City Distance Mag. Time & Date
Minimum magnitude displayed is 2.5.

Coastal Water Temperatures

Place Temperature

Stations

Nearby Weather Stations

Station Location Temp. Windchill Dew Point Humidity Wind Precip. Elev Updated Type
                   
Flash Flood Watch
Statement as of 5:24 PM CDT on May 22, 2015

... Flash Flood Watch remains in effect through Monday morning...

The Flash Flood Watch continues for

* all of western... central... and southern Oklahoma... and western
North Texas.

* Through Monday morning

* 2 to 5 inches of rainfall... with locally higher amounts will be
possible.

Precautionary/preparedness actions...

Monitor weather forecasts and information. Avoid travel in
flooded areas... and make plans to get to higher ground if
flooding develops or worsens in your area.



Austin